Clackamas — WDF6614 — position and weather

sailwx.info

Track history (hours):
 
Tides and Currents Weather Stations Pressure Air Temp Water Temp Dewpoint Dewpoint Depression Visibility Wind Speed Wind Dir Waves Ship Positions

Clackamas

Owner: Port o Portland, Portland, OR. More information available from US FCC via Universal Licensing System and Coast Guard Vessel Documentation Center.

Last reported at 2017-Sep-19 20:22 UTC. Time now 2017-Sep-19 20:55 UTC.
Position N 46°16' W 123°27'.

MMSI: 367476049.

Date/timePositionNaut miles runAvg speedWind from/ knotsBaromVisibWave heightAir tempDewpointWater temp
2017-Sep-19 20:22N 46°16' W 123°27'0 0.0
2017-Sep-19 19:43N 46°16' W 123°27'0 0.0
2017-Sep-19 19:01N 46°16' W 123°27'0 0.1
2017-Sep-19 18:58N 46°16' W 123°27'0 0.0
2017-Sep-19 18:28N 46°16' W 123°27'0 0.0
2017-Sep-19 17:58N 46°16' W 123°27'0 0.0
2017-Sep-19 17:28N 46°16' W 123°27'0 0.8
2017-Sep-19 17:00N 46°16' W 123°28'0 0.1
2017-Sep-19 16:27N 46°16' W 123°28'0 0.7
2017-Sep-19 15:54N 46°16' W 123°28'0 0.0
2017-Sep-19 15:30N 46°16' W 123°28'0 0.9
2017-Sep-19 14:59N 46°16' W 123°28'0 0.5
2017-Sep-19 14:02N 46°16' W 123°27'0 0.0
2017-Sep-19 13:59N 46°16' W 123°27'  
2017-Sep-14 17:12N 46°09' W 123°23'0 0.9
2017-Sep-14 16:43N 46°09' W 123°24'1 2.7
2017-Sep-14 16:30N 46°09' W 123°23'0 0.4
2017-Sep-14 15:51N 46°09' W 123°23'0 1.1
2017-Sep-14 15:29N 46°09' W 123°23'0 0.7
2017-Sep-14 14:59N 46°09' W 123°23'0 0.5
2017-Sep-14 14:29N 46°09' W 123°23'1 1.1
2017-Sep-14 13:46N 46°09' W 123°22'1 3.3
2017-Sep-14 13:30N 46°09' W 123°23'0 0.3
2017-Sep-14 12:59N 46°09' W 123°23'0 0.5
2017-Sep-14 12:26N 46°09' W 123°23'1 1.7
2017-Sep-14 11:57N 46°09' W 123°22'0 0.1
2017-Sep-14 10:05N 46°09' W 123°22'1 3.6
2017-Sep-14 09:52N 46°09' W 123°23'0 0.3
2017-Sep-14 09:11N 46°09' W 123°23'0 0.0
2017-Sep-14 08:55N 46°09' W 123°23'2 5.4
2017-Sep-14 08:28N 46°11' W 123°25'3 5.8
2017-Sep-14 08:00N 46°13' W 123°26'3 5.4
2017-Sep-14 07:30N 46°16' W 123°27'0 0.3
2017-Sep-14 06:59N 46°16' W 123°28'0 0.5
2017-Sep-14 06:25N 46°15' W 123°27'1 2.7
2017-Sep-14 05:58N 46°15' W 123°26'2 3.3
2017-Sep-14 05:30N 46°13' W 123°26'5 1.6
2017-Sep-14 02:16N 46°09' W 123°21'0 0.3
2017-Sep-14 01:54N 46°09' W 123°21'0 0.3
2017-Sep-14 01:30N 46°09' W 123°22'0 0.3
2017-Sep-14 01:00N 46°09' W 123°22'0 0.1
2017-Sep-13 23:28N 46°09' W 123°22'0 0.3
2017-Sep-13 22:48N 46°09' W 123°22'0 0.2
2017-Sep-13 22:05N 46°09' W 123°22'0 0.0
2017-Sep-13 21:53N 46°09' W 123°22'0 0.1
2017-Sep-13 21:25N 46°09' W 123°22'0 0.1
2017-Sep-13 20:52N 46°09' W 123°22'1 3.1
2017-Sep-13 20:28N 46°09' W 123°23'2 2.1
2017-Sep-13 19:40N 46°09' W 123°21'0 2.6
2017-Sep-13 19:30N 46°09' W 123°22'1 0.6
2017-Sep-13 18:33N 46°09' W 123°21'0 2.2
2017-Sep-13 18:27N 46°09' W 123°21'0 0.1
2017-Sep-13 17:48N 46°09' W 123°21'0 0.6
2017-Sep-13 17:20N 46°09' W 123°22'0 0.2
2017-Sep-13 16:50N 46°09' W 123°22'0 0.0
2017-Sep-13 16:26N 46°09' W 123°22'0 0.1
2017-Sep-13 15:53N 46°09' W 123°22'0 0.0
2017-Sep-13 12:43N 46°09' W 123°22'0 0.0
2017-Sep-13 12:31N 46°09' W 123°22'0 0.1
2017-Sep-13 11:40N 46°09' W 123°22'0 0.5
2017-Sep-13 11:30N 46°09' W 123°22'0 0.2
2017-Sep-13 11:00N 46°09' W 123°22'0 0.1
2017-Sep-13 10:05N 46°09' W 123°22'0 0.1
2017-Sep-13 09:44N 46°09' W 123°22'0 0.0
2017-Sep-13 09:29N 46°09' W 123°22'0 0.0
2017-Sep-13 08:04N 46°09' W 123°22'0 0.1
2017-Sep-13 07:34N 46°09' W 123°22'0 0.0
2017-Sep-13 07:10N 46°09' W 123°22'0 0.0
2017-Sep-13 06:55N 46°09' W 123°22'0 0.0
2017-Sep-13 02:27N 46°09' W 123°22'0 0.0
2017-Sep-13 01:12N 46°09' W 123°22'0 0.0
2017-Sep-13 00:55N 46°09' W 123°22'1 2.7
2017-Sep-13 00:30N 46°09' W 123°23'1 1.8
2017-Sep-12 23:59N 46°09' W 123°22'0 0.1
2017-Sep-12 21:35N 46°09' W 123°22'2 6.5
2017-Sep-12 21:14N 46°09' W 123°18'3 9.3
2017-Sep-12 20:55N 46°10' W 123°14'9 9.0
2017-Sep-12 19:57N 46°09' W 123°02'5 9.6
2017-Sep-12 19:29N 46°06' W 122°57'4 9.0
2017-Sep-12 19:00N 46°02' W 122°53'8 9.4
2017-Sep-12 18:07N 45°55' W 122°49'2 9.5
2017-Sep-12 17:54N 45°53' W 122°48'4 8.7
2017-Sep-12 17:29N 45°49' W 122°48'4 8.9
2017-Sep-12 17:00N 45°45' W 122°46'5 9.1
2017-Sep-12 16:30N 45°40' W 122°46'4 7.6
2017-Sep-12 16:00N 45°37' W 122°47'4 7.3
2017-Sep-12 15:31N 45°34' W 122°43'0 0.0
2017-Sep-11 23:26N 45°34' W 122°43'0 0.2
2017-Sep-11 22:56N 45°34' W 122°43'2 3.7
2017-Sep-11 22:29N 45°35' W 122°45'3 6.6
2017-Sep-11 21:58N 45°38' W 122°47'4 6.0
2017-Sep-11 21:20N 45°41' W 122°46'2 6.1
2017-Sep-11 20:59N 45°44' W 122°46'3 5.4
2017-Sep-11 20:30N 45°46' W 122°46'4 6.2
2017-Sep-11 19:53N 45°50' W 122°48'2 5.2
2017-Sep-11 19:30N 45°52' W 122°47'3 5.5
2017-Sep-11 18:52N 45°55' W 122°49'2 5.6
2017-Sep-11 18:28N 45°57' W 122°49'3 6.0
2017-Sep-11 17:56N 46°00' W 122°51'3 6.1
2017-Sep-11 17:23N 46°03' W 122°53'3 5.8
2017-Sep-11 16:53N 46°06' W 122°56'3 6.7
2017-Sep-11 16:30N 46°07' W 122°59'4 6.8
2017-Sep-11 15:59N 46°09' W 123°03'510.5
2017-Sep-11 15:29N 46°11' W 123°10'2 3.5
2017-Sep-11 15:00N 46°11' W 123°12'4 7.1
2017-Sep-11 14:30N 46°09' W 123°16'3 6.3
2017-Sep-11 14:00N 46°09' W 123°21'0 0.3
2017-Sep-11 13:18N 46°09' W 123°21'0 0.8
2017-Sep-11 12:55N 46°09' W 123°21'0 0.0
2017-Sep-11 12:13N 46°09' W 123°21'0 0.0
2017-Sep-11 11:55N 46°09' W 123°21'0 0.0
2017-Sep-11 11:25N 46°09' W 123°21'0 0.0
2017-Sep-11 10:43N 46°09' W 123°21'0 0.0
2017-Sep-11 09:16N 46°09' W 123°21'0 0.0
2017-Sep-11 08:58N 46°09' W 123°21'0 0.0
2017-Sep-11 08:28N 46°09' W 123°21'0 0.0
2017-Sep-11 07:58N 46°09' W 123°21'0 0.0
2017-Sep-11 04:19N 46°09' W 123°21'0 0.0
2017-Sep-11 03:31N 46°09' W 123°21'0 0.0
2017-Sep-11 02:10N 46°09' W 123°21'0 0.0
2017-Sep-11 01:40N 46°09' W 123°21'0 0.0
2017-Sep-11 01:28N 46°09' W 123°21'0 0.0
2017-Sep-10 22:49N 46°09' W 123°21'0 0.0
2017-Sep-10 20:43N 46°09' W 123°21'0 0.0
2017-Sep-10 20:28N 46°09' W 123°21'0 0.0
2017-Sep-10 18:13N 46°09' W 123°21'0 0.0
2017-Sep-10 17:55N 46°09' W 123°21'0 0.0
2017-Sep-10 17:25N 46°09' W 123°21'0 0.0
2017-Sep-10 16:49N 46°09' W 123°21'0 0.0
2017-Sep-10 16:13N 46°09' W 123°21'0 0.0
2017-Sep-10 15:55N 46°09' W 123°21'0 0.0
2017-Sep-10 13:49N 46°09' W 123°21'0 0.0
2017-Sep-10 13:31N 46°09' W 123°21'0 0.0
2017-Sep-10 08:34N 46°09' W 123°21'0 0.0
2017-Sep-10 08:19N 46°09' W 123°21'0 0.0
2017-Sep-10 02:14N 46°09' W 123°21'0 0.1
2017-Sep-10 01:41N 46°09' W 123°21'0 0.0
2017-Sep-09 23:36N 46°09' W 123°21'0 0.8
2017-Sep-09 23:29N 46°09' W 123°21'0 0.1
2017-Sep-09 22:53N 46°09' W 123°21'0 0.0
2017-Sep-09 20:23N 46°09' W 123°21'  
Track history (hours):
 
Tides and Currents Weather Stations Pressure Air Temp Water Temp Dewpoint Dewpoint Depression Visibility Wind Speed Wind Dir Waves Ship Positions

Clackamas

Owner: Port o Portland, Portland, OR. More information available from US FCC via Universal Licensing System and Coast Guard Vessel Documentation Center.

Last reported at 2017-Sep-19 20:22 UTC. Time now 2017-Sep-19 20:55 UTC.
Position N 46°16' W 123°27'.

MMSI: 367476049.

Date/timePositionNaut miles runAvg speedWind from/ knotsBaromVisibWave heightAir tempDewpointWater temp
2017-Sep-19 20:22N 46°16' W 123°27'0 0.0
2017-Sep-19 19:43N 46°16' W 123°27'0 0.0
2017-Sep-19 19:01N 46°16' W 123°27'0 0.1
2017-Sep-19 18:58N 46°16' W 123°27'0 0.0
2017-Sep-19 18:28N 46°16' W 123°27'0 0.0
2017-Sep-19 17:58N 46°16' W 123°27'0 0.0
2017-Sep-19 17:28N 46°16' W 123°27'0 0.8
2017-Sep-19 17:00N 46°16' W 123°28'0 0.1
2017-Sep-19 16:27N 46°16' W 123°28'0 0.7
2017-Sep-19 15:54N 46°16' W 123°28'0 0.0
2017-Sep-19 15:30N 46°16' W 123°28'0 0.9
2017-Sep-19 14:59N 46°16' W 123°28'0 0.5
2017-Sep-19 14:02N 46°16' W 123°27'0 0.0
2017-Sep-19 13:59N 46°16' W 123°27'  
2017-Sep-14 17:12N 46°09' W 123°23'0 0.9
2017-Sep-14 16:43N 46°09' W 123°24'1 2.7
2017-Sep-14 16:30N 46°09' W 123°23'0 0.4
2017-Sep-14 15:51N 46°09' W 123°23'0 1.1
2017-Sep-14 15:29N 46°09' W 123°23'0 0.7
2017-Sep-14 14:59N 46°09' W 123°23'0 0.5
2017-Sep-14 14:29N 46°09' W 123°23'1 1.1
2017-Sep-14 13:46N 46°09' W 123°22'1 3.3
2017-Sep-14 13:30N 46°09' W 123°23'0 0.3
2017-Sep-14 12:59N 46°09' W 123°23'0 0.5
2017-Sep-14 12:26N 46°09' W 123°23'1 1.7
2017-Sep-14 11:57N 46°09' W 123°22'0 0.1
2017-Sep-14 10:05N 46°09' W 123°22'1 3.6
2017-Sep-14 09:52N 46°09' W 123°23'0 0.3
2017-Sep-14 09:11N 46°09' W 123°23'0 0.0
2017-Sep-14 08:55N 46°09' W 123°23'2 5.4
2017-Sep-14 08:28N 46°11' W 123°25'3 5.8
2017-Sep-14 08:00N 46°13' W 123°26'3 5.4
2017-Sep-14 07:30N 46°16' W 123°27'0 0.3
2017-Sep-14 06:59N 46°16' W 123°28'0 0.5
2017-Sep-14 06:25N 46°15' W 123°27'1 2.7
2017-Sep-14 05:58N 46°15' W 123°26'2 3.3
2017-Sep-14 05:30N 46°13' W 123°26'5 1.6
2017-Sep-14 02:16N 46°09' W 123°21'0 0.3
2017-Sep-14 01:54N 46°09' W 123°21'0 0.3
2017-Sep-14 01:30N 46°09' W 123°22'0 0.3
2017-Sep-14 01:00N 46°09' W 123°22'0 0.1
2017-Sep-13 23:28N 46°09' W 123°22'0 0.3
2017-Sep-13 22:48N 46°09' W 123°22'0 0.2
2017-Sep-13 22:05N 46°09' W 123°22'0 0.0
2017-Sep-13 21:53N 46°09' W 123°22'0 0.1
2017-Sep-13 21:25N 46°09' W 123°22'0 0.1
2017-Sep-13 20:52N 46°09' W 123°22'1 3.1
2017-Sep-13 20:28N 46°09' W 123°23'2 2.1
2017-Sep-13 19:40N 46°09' W 123°21'0 2.6
2017-Sep-13 19:30N 46°09' W 123°22'1 0.6
2017-Sep-13 18:33N 46°09' W 123°21'0 2.2
2017-Sep-13 18:27N 46°09' W 123°21'0 0.1
2017-Sep-13 17:48N 46°09' W 123°21'0 0.6
2017-Sep-13 17:20N 46°09' W 123°22'0 0.2
2017-Sep-13 16:50N 46°09' W 123°22'0 0.0
2017-Sep-13 16:26N 46°09' W 123°22'0 0.1
2017-Sep-13 15:53N 46°09' W 123°22'0 0.0
2017-Sep-13 12:43N 46°09' W 123°22'0 0.0
2017-Sep-13 12:31N 46°09' W 123°22'0 0.1
2017-Sep-13 11:40N 46°09' W 123°22'0 0.5
2017-Sep-13 11:30N 46°09' W 123°22'0 0.2
2017-Sep-13 11:00N 46°09' W 123°22'0 0.1
2017-Sep-13 10:05N 46°09' W 123°22'0 0.1
2017-Sep-13 09:44N 46°09' W 123°22'0 0.0
2017-Sep-13 09:29N 46°09' W 123°22'0 0.0
2017-Sep-13 08:04N 46°09' W 123°22'0 0.1
2017-Sep-13 07:34N 46°09' W 123°22'0 0.0
2017-Sep-13 07:10N 46°09' W 123°22'0 0.0
2017-Sep-13 06:55N 46°09' W 123°22'0 0.0
2017-Sep-13 02:27N 46°09' W 123°22'0 0.0
2017-Sep-13 01:12N 46°09' W 123°22'0 0.0
2017-Sep-13 00:55N 46°09' W 123°22'1 2.7
2017-Sep-13 00:30N 46°09' W 123°23'1 1.8
2017-Sep-12 23:59N 46°09' W 123°22'0 0.1
2017-Sep-12 21:35N 46°09' W 123°22'2 6.5
2017-Sep-12 21:14N 46°09' W 123°18'3 9.3
2017-Sep-12 20:55N 46°10' W 123°14'9 9.0
2017-Sep-12 19:57N 46°09' W 123°02'5 9.6
2017-Sep-12 19:29N 46°06' W 122°57'4 9.0
2017-Sep-12 19:00N 46°02' W 122°53'8 9.4
2017-Sep-12 18:07N 45°55' W 122°49'2 9.5
2017-Sep-12 17:54N 45°53' W 122°48'4 8.7
2017-Sep-12 17:29N 45°49' W 122°48'4 8.9
2017-Sep-12 17:00N 45°45' W 122°46'5 9.1
2017-Sep-12 16:30N 45°40' W 122°46'4 7.6
2017-Sep-12 16:00N 45°37' W 122°47'4 7.3
2017-Sep-12 15:31N 45°34' W 122°43'0 0.0
2017-Sep-11 23:26N 45°34' W 122°43'0 0.2
2017-Sep-11 22:56N 45°34' W 122°43'2 3.7
2017-Sep-11 22:29N 45°35' W 122°45'3 6.6
2017-Sep-11 21:58N 45°38' W 122°47'4 6.0
2017-Sep-11 21:20N 45°41' W 122°46'2 6.1
2017-Sep-11 20:59N 45°44' W 122°46'3 5.4
2017-Sep-11 20:30N 45°46' W 122°46'4 6.2
2017-Sep-11 19:53N 45°50' W 122°48'2 5.2
2017-Sep-11 19:30N 45°52' W 122°47'3 5.5
2017-Sep-11 18:52N 45°55' W 122°49'2 5.6
2017-Sep-11 18:28N 45°57' W 122°49'3 6.0
2017-Sep-11 17:56N 46°00' W 122°51'3 6.1
2017-Sep-11 17:23N 46°03' W 122°53'3 5.8
2017-Sep-11 16:53N 46°06' W 122°56'3 6.7
2017-Sep-11 16:30N 46°07' W 122°59'4 6.8
2017-Sep-11 15:59N 46°09' W 123°03'510.5
2017-Sep-11 15:29N 46°11' W 123°10'2 3.5
2017-Sep-11 15:00N 46°11' W 123°12'4 7.1
2017-Sep-11 14:30N 46°09' W 123°16'3 6.3
2017-Sep-11 14:00N 46°09' W 123°21'0 0.3
2017-Sep-11 13:18N 46°09' W 123°21'0 0.8
2017-Sep-11 12:55N 46°09' W 123°21'0 0.0
2017-Sep-11 12:13N 46°09' W 123°21'0 0.0
2017-Sep-11 11:55N 46°09' W 123°21'0 0.0
2017-Sep-11 11:25N 46°09' W 123°21'0 0.0
2017-Sep-11 10:43N 46°09' W 123°21'0 0.0
2017-Sep-11 09:16N 46°09' W 123°21'0 0.0
2017-Sep-11 08:58N 46°09' W 123°21'0 0.0
2017-Sep-11 08:28N 46°09' W 123°21'0 0.0
2017-Sep-11 07:58N 46°09' W 123°21'0 0.0
2017-Sep-11 04:19N 46°09' W 123°21'0 0.0
2017-Sep-11 03:31N 46°09' W 123°21'0 0.0
2017-Sep-11 02:10N 46°09' W 123°21'0 0.0
2017-Sep-11 01:40N 46°09' W 123°21'0 0.0
2017-Sep-11 01:28N 46°09' W 123°21'0 0.0
2017-Sep-10 22:49N 46°09' W 123°21'0 0.0
2017-Sep-10 20:43N 46°09' W 123°21'0 0.0
2017-Sep-10 20:28N 46°09' W 123°21'0 0.0
2017-Sep-10 18:13N 46°09' W 123°21'0 0.0
2017-Sep-10 17:55N 46°09' W 123°21'0 0.0
2017-Sep-10 17:25N 46°09' W 123°21'0 0.0
2017-Sep-10 16:49N 46°09' W 123°21'0 0.0
2017-Sep-10 16:13N 46°09' W 123°21'0 0.0
2017-Sep-10 15:55N 46°09' W 123°21'0 0.0
2017-Sep-10 13:49N 46°09' W 123°21'0 0.0
2017-Sep-10 13:31N 46°09' W 123°21'0 0.0
2017-Sep-10 08:34N 46°09' W 123°21'0 0.0
2017-Sep-10 08:19N 46°09' W 123°21'0 0.0
2017-Sep-10 02:14N 46°09' W 123°21'0 0.1
2017-Sep-10 01:41N 46°09' W 123°21'0 0.0
2017-Sep-09 23:36N 46°09' W 123°21'0 0.8
2017-Sep-09 23:29N 46°09' W 123°21'0 0.1
2017-Sep-09 22:53N 46°09' W 123°21'0 0.0
2017-Sep-09 20:23N 46°09' W 123°21'  

Dump ship's entire track history